Terminal Aerodrome Forecast
Issued by NWS

Home | Current Version | Previous Version | Text Only | Print | Product List | Glossary On
Versions: 1 2 3 4 5 6 7 8 9 10 11 12 13 14
000
FTUS46 KHNX 022320
TAFBFL
TAF
KBFL 022320Z 0300/0324 31010KT P6SM FEW250
     FM030300 32005KT P6SM FEW250
     FM032000 30010G15KT P6SM FEW250=

USA.gov is the U.S. government's official web portal to all federal, state and local government web resources and services.